sensor_id;sensor_type;location;lat;lon;timestamp;P1;durP1;ratioP1;P2;durP2;ratioP2
51122;SDS011;37162;41.724;13.346;2023-12-20T00:01:18;4.82;;;2.95;;
51122;SDS011;37162;41.724;13.346;2023-12-20T00:03:43;4.85;;;3.17;;
51122;SDS011;37162;41.724;13.346;2023-12-20T00:06:09;4.43;;;3.03;;
51122;SDS011;37162;41.724;13.346;2023-12-20T00:08:35;3.53;;;2.60;;
51122;SDS011;37162;41.724;13.346;2023-12-20T00:11:00;4.53;;;3.15;;
51122;SDS011;37162;41.724;13.346;2023-12-20T00:13:26;3.55;;;2.67;;
51122;SDS011;37162;41.724;13.346;2023-12-20T00:15:51;4.72;;;3.10;;
51122;SDS011;37162;41.724;13.346;2023-12-20T00:18:17;3.67;;;2.67;;
51122;SDS011;37162;41.724;13.346;2023-12-20T00:20:42;3.83;;;2.45;;
51122;SDS011;37162;41.724;13.346;2023-12-20T00:23:08;4.22;;;2.60;;
51122;SDS011;37162;41.724;13.346;2023-12-20T00:25:33;3.63;;;2.78;;
51122;SDS011;37162;41.724;13.346;2023-12-20T00:28:00;3.35;;;2.38;;
51122;SDS011;37162;41.724;13.346;2023-12-20T00:30:25;3.30;;;2.70;;
51122;SDS011;37162;41.724;13.346;2023-12-20T00:32:51;2.53;;;2.15;;
51122;SDS011;37162;41.724;13.346;2023-12-20T00:35:17;4.28;;;2.80;;
51122;SDS011;37162;41.724;13.346;2023-12-20T00:37:42;4.50;;;2.35;;
51122;SDS011;37162;41.724;13.346;2023-12-20T00:40:08;3.22;;;2.53;;
51122;SDS011;37162;41.724;13.346;2023-12-20T00:42:34;3.30;;;2.50;;
51122;SDS011;37162;41.724;13.346;2023-12-20T00:45:01;2.92;;;2.08;;
51122;SDS011;37162;41.724;13.346;2023-12-20T00:47:27;2.70;;;2.20;;
51122;SDS011;37162;41.724;13.346;2023-12-20T00:49:52;4.38;;;2.40;;
51122;SDS011;37162;41.724;13.346;2023-12-20T00:52:18;3.45;;;2.33;;
51122;SDS011;37162;41.724;13.346;2023-12-20T00:54:44;3.08;;;2.15;;
51122;SDS011;37162;41.724;13.346;2023-12-20T00:57:10;3.17;;;2.33;;
51122;SDS011;37162;41.724;13.346;2023-12-20T00:59:35;2.15;;;1.88;;
51122;SDS011;37162;41.724;13.346;2023-12-20T01:02:01;2.35;;;2.00;;
51122;SDS011;37162;41.724;13.346;2023-12-20T01:04:27;3.90;;;2.40;;
51122;SDS011;37162;41.724;13.346;2023-12-20T01:06:52;2.80;;;2.25;;
51122;SDS011;37162;41.724;13.346;2023-12-20T01:09:18;2.97;;;1.90;;
51122;SDS011;37162;41.724;13.346;2023-12-20T01:11:44;3.05;;;2.45;;
51122;SDS011;37162;41.724;13.346;2023-12-20T01:14:11;3.03;;;2.40;;
51122;SDS011;37162;41.724;13.346;2023-12-20T01:16:37;3.47;;;1.90;;
51122;SDS011;37162;41.724;13.346;2023-12-20T01:19:03;3.22;;;2.17;;
51122;SDS011;37162;41.724;13.346;2023-12-20T01:21:28;2.70;;;2.17;;
51122;SDS011;37162;41.724;13.346;2023-12-20T01:23:54;2.75;;;2.05;;
51122;SDS011;37162;41.724;13.346;2023-12-20T01:26:19;3.15;;;1.98;;
51122;SDS011;37162;41.724;13.346;2023-12-20T01:28:44;2.78;;;2.05;;
51122;SDS011;37162;41.724;13.346;2023-12-20T01:31:10;2.92;;;1.83;;
51122;SDS011;37162;41.724;13.346;2023-12-20T01:33:35;2.78;;;1.90;;
51122;SDS011;37162;41.724;13.346;2023-12-20T01:36:01;2.22;;;1.60;;
51122;SDS011;37162;41.724;13.346;2023-12-20T01:38:26;4.80;;;2.17;;
51122;SDS011;37162;41.724;13.346;2023-12-20T01:40:52;2.72;;;1.88;;
51122;SDS011;37162;41.724;13.346;2023-12-20T01:43:17;1.95;;;1.70;;
51122;SDS011;37162;41.724;13.346;2023-12-20T01:45:43;2.65;;;1.85;;
51122;SDS011;37162;41.724;13.346;2023-12-20T01:48:08;2.25;;;2.00;;
51122;SDS011;37162;41.724;13.346;2023-12-20T01:50:36;3.33;;;2.13;;
51122;SDS011;37162;41.724;13.346;2023-12-20T01:53:02;2.05;;;1.80;;
51122;SDS011;37162;41.724;13.346;2023-12-20T01:55:32;3.33;;;1.73;;
51122;SDS011;37162;41.724;13.346;2023-12-20T01:58:00;2.88;;;1.75;;
51122;SDS011;37162;41.724;13.346;2023-12-20T02:00:26;2.13;;;1.55;;
51122;SDS011;37162;41.724;13.346;2023-12-20T02:02:54;5.70;;;2.15;;
51122;SDS011;37162;41.724;13.346;2023-12-20T02:05:22;2.42;;;1.63;;
51122;SDS011;37162;41.724;13.346;2023-12-20T02:07:49;2.17;;;1.63;;
51122;SDS011;37162;41.724;13.346;2023-12-20T02:10:15;2.60;;;2.00;;
51122;SDS011;37162;41.724;13.346;2023-12-20T02:12:41;2.92;;;2.00;;
51122;SDS011;37162;41.724;13.346;2023-12-20T02:15:06;2.30;;;1.80;;
51122;SDS011;37162;41.724;13.346;2023-12-20T02:17:32;3.05;;;1.80;;
51122;SDS011;37162;41.724;13.346;2023-12-20T02:19:58;3.10;;;2.08;;
51122;SDS011;37162;41.724;13.346;2023-12-20T02:22:24;2.38;;;1.92;;
51122;SDS011;37162;41.724;13.346;2023-12-20T02:24:50;2.60;;;1.85;;
51122;SDS011;37162;41.724;13.346;2023-12-20T02:27:15;2.80;;;1.98;;
51122;SDS011;37162;41.724;13.346;2023-12-20T02:29:43;3.85;;;2.28;;
51122;SDS011;37162;41.724;13.346;2023-12-20T02:32:08;2.78;;;1.88;;
51122;SDS011;37162;41.724;13.346;2023-12-20T02:34:34;2.70;;;1.70;;
51122;SDS011;37162;41.724;13.346;2023-12-20T02:36:59;2.13;;;1.60;;
51122;SDS011;37162;41.724;13.346;2023-12-20T02:39:25;3.25;;;1.88;;
51122;SDS011;37162;41.724;13.346;2023-12-20T02:41:50;2.80;;;1.50;;
51122;SDS011;37162;41.724;13.346;2023-12-20T02:44:16;3.10;;;1.70;;
51122;SDS011;37162;41.724;13.346;2023-12-20T02:46:41;1.65;;;1.40;;
51122;SDS011;37162;41.724;13.346;2023-12-20T02:49:07;1.75;;;1.42;;
51122;SDS011;37162;41.724;13.346;2023-12-20T02:51:32;1.70;;;1.48;;
51122;SDS011;37162;41.724;13.346;2023-12-20T02:53:58;2.13;;;1.60;;
51122;SDS011;37162;41.724;13.346;2023-12-20T02:56:23;4.50;;;1.80;;
51122;SDS011;37162;41.724;13.346;2023-12-20T02:58:49;3.15;;;1.52;;
51122;SDS011;37162;41.724;13.346;2023-12-20T03:01:14;1.98;;;1.65;;
51122;SDS011;37162;41.724;13.346;2023-12-20T03:03:39;2.78;;;1.70;;
51122;SDS011;37162;41.724;13.346;2023-12-20T03:06:05;2.22;;;1.67;;
51122;SDS011;37162;41.724;13.346;2023-12-20T03:08:30;2.63;;;1.90;;
51122;SDS011;37162;41.724;13.346;2023-12-20T03:10:56;4.93;;;1.42;;
51122;SDS011;37162;41.724;13.346;2023-12-20T03:13:21;2.40;;;1.48;;
51122;SDS011;37162;41.724;13.346;2023-12-20T03:15:47;2.83;;;1.83;;
51122;SDS011;37162;41.724;13.346;2023-12-20T03:18:12;2.83;;;1.48;;
51122;SDS011;37162;41.724;13.346;2023-12-20T03:20:38;2.17;;;1.58;;
51122;SDS011;37162;41.724;13.346;2023-12-20T03:23:03;2.15;;;1.50;;
51122;SDS011;37162;41.724;13.346;2023-12-20T03:25:29;2.00;;;1.58;;
51122;SDS011;37162;41.724;13.346;2023-12-20T03:27:54;1.58;;;1.20;;
51122;SDS011;37162;41.724;13.346;2023-12-20T03:30:20;1.60;;;1.40;;
51122;SDS011;37162;41.724;13.346;2023-12-20T03:32:46;2.22;;;1.65;;
51122;SDS011;37162;41.724;13.346;2023-12-20T03:35:12;1.50;;;1.23;;
51122;SDS011;37162;41.724;13.346;2023-12-20T03:37:38;1.48;;;1.30;;
51122;SDS011;37162;41.724;13.346;2023-12-20T03:40:03;3.05;;;1.50;;
51122;SDS011;37162;41.724;13.346;2023-12-20T03:42:29;1.73;;;1.30;;
51122;SDS011;37162;41.724;13.346;2023-12-20T03:44:55;1.70;;;1.42;;
51122;SDS011;37162;41.724;13.346;2023-12-20T03:47:20;1.95;;;1.65;;
51122;SDS011;37162;41.724;13.346;2023-12-20T03:49:45;1.20;;;1.10;;
51122;SDS011;37162;41.724;13.346;2023-12-20T03:52:11;2.00;;;1.35;;
51122;SDS011;37162;41.724;13.346;2023-12-20T03:54:37;1.40;;;1.30;;
51122;SDS011;37162;41.724;13.346;2023-12-20T03:57:03;2.47;;;1.30;;
51122;SDS011;37162;41.724;13.346;2023-12-20T03:59:29;2.60;;;1.40;;
51122;SDS011;37162;41.724;13.346;2023-12-20T04:01:55;1.80;;;1.30;;
51122;SDS011;37162;41.724;13.346;2023-12-20T04:04:20;2.38;;;1.30;;
51122;SDS011;37162;41.724;13.346;2023-12-20T04:06:46;2.30;;;1.58;;
51122;SDS011;37162;41.724;13.346;2023-12-20T04:09:11;2.72;;;1.50;;
51122;SDS011;37162;41.724;13.346;2023-12-20T04:11:37;1.40;;;1.23;;
51122;SDS011;37162;41.724;13.346;2023-12-20T04:14:03;1.55;;;1.35;;
51122;SDS011;37162;41.724;13.346;2023-12-20T04:16:30;1.38;;;1.15;;
51122;SDS011;37162;41.724;13.346;2023-12-20T04:18:55;1.73;;;1.20;;
51122;SDS011;37162;41.724;13.346;2023-12-20T04:21:21;1.58;;;1.30;;
51122;SDS011;37162;41.724;13.346;2023-12-20T04:23:46;1.45;;;1.13;;
51122;SDS011;37162;41.724;13.346;2023-12-20T04:26:12;2.50;;;1.27;;
51122;SDS011;37162;41.724;13.346;2023-12-20T04:28:37;1.20;;;1.05;;
51122;SDS011;37162;41.724;13.346;2023-12-20T04:31:03;1.30;;;1.20;;
51122;SDS011;37162;41.724;13.346;2023-12-20T04:33:28;1.30;;;1.20;;
51122;SDS011;37162;41.724;13.346;2023-12-20T04:35:54;1.67;;;1.40;;
51122;SDS011;37162;41.724;13.346;2023-12-20T04:38:19;1.35;;;1.20;;
51122;SDS011;37162;41.724;13.346;2023-12-20T04:40:45;1.58;;;1.30;;
51122;SDS011;37162;41.724;13.346;2023-12-20T04:43:10;1.65;;;1.30;;
51122;SDS011;37162;41.724;13.346;2023-12-20T04:45:35;1.52;;;1.30;;
51122;SDS011;37162;41.724;13.346;2023-12-20T04:48:01;1.38;;;1.10;;
51122;SDS011;37162;41.724;13.346;2023-12-20T04:50:27;1.40;;;1.30;;
51122;SDS011;37162;41.724;13.346;2023-12-20T04:52:53;5.13;;;1.13;;
51122;SDS011;37162;41.724;13.346;2023-12-20T04:55:18;1.95;;;1.20;;
51122;SDS011;37162;41.724;13.346;2023-12-20T04:57:44;1.13;;;1.02;;
51122;SDS011;37162;41.724;13.346;2023-12-20T05:00:09;2.70;;;1.23;;
51122;SDS011;37162;41.724;13.346;2023-12-20T05:02:36;2.03;;;1.38;;
51122;SDS011;37162;41.724;13.346;2023-12-20T05:05:01;1.70;;;1.20;;
51122;SDS011;37162;41.724;13.346;2023-12-20T05:07:27;1.40;;;1.17;;
51122;SDS011;37162;41.724;13.346;2023-12-20T05:09:52;1.83;;;1.20;;
51122;SDS011;37162;41.724;13.346;2023-12-20T05:12:18;1.45;;;1.20;;
51122;SDS011;37162;41.724;13.346;2023-12-20T05:14:44;1.50;;;1.23;;
51122;SDS011;37162;41.724;13.346;2023-12-20T05:17:09;1.38;;;1.10;;
51122;SDS011;37162;41.724;13.346;2023-12-20T05:19:35;1.83;;;1.27;;
51122;SDS011;37162;41.724;13.346;2023-12-20T05:22:03;1.67;;;1.33;;
51122;SDS011;37162;41.724;13.346;2023-12-20T05:24:29;1.85;;;1.20;;
51122;SDS011;37162;41.724;13.346;2023-12-20T05:26:54;1.83;;;1.40;;
51122;SDS011;37162;41.724;13.346;2023-12-20T05:29:20;2.20;;;1.50;;
51122;SDS011;37162;41.724;13.346;2023-12-20T05:31:46;1.20;;;1.10;;
51122;SDS011;37162;41.724;13.346;2023-12-20T05:34:11;3.45;;;2.00;;
51122;SDS011;37162;41.724;13.346;2023-12-20T05:36:37;2.63;;;1.60;;
51122;SDS011;37162;41.724;13.346;2023-12-20T05:39:02;1.48;;;1.30;;
51122;SDS011;37162;41.724;13.346;2023-12-20T05:41:32;1.88;;;1.35;;
51122;SDS011;37162;41.724;13.346;2023-12-20T05:43:58;1.90;;;1.30;;
51122;SDS011;37162;41.724;13.346;2023-12-20T05:46:24;1.40;;;1.23;;
51122;SDS011;37162;41.724;13.346;2023-12-20T05:48:50;2.15;;;1.67;;
51122;SDS011;37162;41.724;13.346;2023-12-20T05:51:16;2.10;;;1.63;;
51122;SDS011;37162;41.724;13.346;2023-12-20T05:53:42;1.85;;;1.50;;
51122;SDS011;37162;41.724;13.346;2023-12-20T05:56:09;1.80;;;1.50;;
51122;SDS011;37162;41.724;13.346;2023-12-20T05:58:34;2.28;;;1.40;;
51122;SDS011;37162;41.724;13.346;2023-12-20T06:01:00;1.88;;;1.55;;
51122;SDS011;37162;41.724;13.346;2023-12-20T06:03:28;1.85;;;1.40;;
51122;SDS011;37162;41.724;13.346;2023-12-20T06:05:54;2.00;;;1.40;;
51122;SDS011;37162;41.724;13.346;2023-12-20T06:08:19;2.13;;;1.48;;
51122;SDS011;37162;41.724;13.346;2023-12-20T06:10:44;3.58;;;1.98;;
51122;SDS011;37162;41.724;13.346;2023-12-20T06:13:10;2.78;;;1.73;;
51122;SDS011;37162;41.724;13.346;2023-12-20T06:15:38;2.30;;;1.48;;
51122;SDS011;37162;41.724;13.346;2023-12-20T06:18:03;2.22;;;1.40;;
51122;SDS011;37162;41.724;13.346;2023-12-20T06:20:29;2.80;;;1.90;;
51122;SDS011;37162;41.724;13.346;2023-12-20T06:22:54;1.77;;;1.50;;
51122;SDS011;37162;41.724;13.346;2023-12-20T06:25:20;2.47;;;1.80;;
51122;SDS011;37162;41.724;13.346;2023-12-20T06:27:45;2.15;;;1.80;;
51122;SDS011;37162;41.724;13.346;2023-12-20T06:30:11;1.98;;;1.40;;
51122;SDS011;37162;41.724;13.346;2023-12-20T06:32:36;3.22;;;1.50;;
51122;SDS011;37162;41.724;13.346;2023-12-20T06:35:03;4.47;;;1.80;;
51122;SDS011;37162;41.724;13.346;2023-12-20T06:37:30;1.75;;;1.60;;
51122;SDS011;37162;41.724;13.346;2023-12-20T06:39:55;2.50;;;1.60;;
51122;SDS011;37162;41.724;13.346;2023-12-20T06:42:22;1.90;;;1.45;;
51122;SDS011;37162;41.724;13.346;2023-12-20T06:44:47;2.50;;;1.83;;
51122;SDS011;37162;41.724;13.346;2023-12-20T06:47:13;2.40;;;1.73;;
51122;SDS011;37162;41.724;13.346;2023-12-20T06:49:39;3.33;;;1.60;;
51122;SDS011;37162;41.724;13.346;2023-12-20T06:52:05;2.05;;;1.60;;
51122;SDS011;37162;41.724;13.346;2023-12-20T06:54:31;1.77;;;1.52;;
51122;SDS011;37162;41.724;13.346;2023-12-20T06:56:56;2.75;;;1.63;;
51122;SDS011;37162;41.724;13.346;2023-12-20T06:59:22;2.13;;;1.40;;
51122;SDS011;37162;41.724;13.346;2023-12-20T07:01:47;5.05;;;1.70;;
51122;SDS011;37162;41.724;13.346;2023-12-20T07:04:14;2.53;;;1.50;;
51122;SDS011;37162;41.724;13.346;2023-12-20T07:06:39;1.75;;;1.35;;
51122;SDS011;37162;41.724;13.346;2023-12-20T07:09:05;1.83;;;1.30;;
51122;SDS011;37162;41.724;13.346;2023-12-20T07:11:30;1.85;;;1.42;;
51122;SDS011;37162;41.724;13.346;2023-12-20T07:13:56;1.60;;;1.50;;
51122;SDS011;37162;41.724;13.346;2023-12-20T07:16:21;2.20;;;1.30;;
51122;SDS011;37162;41.724;13.346;2023-12-20T07:18:47;1.50;;;1.30;;
51122;SDS011;37162;41.724;13.346;2023-12-20T07:21:13;2.60;;;1.48;;
51122;SDS011;37162;41.724;13.346;2023-12-20T07:23:38;2.13;;;1.33;;
51122;SDS011;37162;41.724;13.346;2023-12-20T07:26:04;1.63;;;1.33;;
51122;SDS011;37162;41.724;13.346;2023-12-20T07:28:29;1.70;;;1.50;;
51122;SDS011;37162;41.724;13.346;2023-12-20T07:30:55;2.35;;;1.55;;
51122;SDS011;37162;41.724;13.346;2023-12-20T07:33:20;1.90;;;1.35;;
51122;SDS011;37162;41.724;13.346;2023-12-20T07:35:46;1.58;;;1.20;;
51122;SDS011;37162;41.724;13.346;2023-12-20T07:38:12;2.25;;;1.58;;
51122;SDS011;37162;41.724;13.346;2023-12-20T07:40:37;2.25;;;1.60;;
51122;SDS011;37162;41.724;13.346;2023-12-20T07:43:04;2.47;;;1.55;;
51122;SDS011;37162;41.724;13.346;2023-12-20T07:45:29;1.90;;;1.40;;
51122;SDS011;37162;41.724;13.346;2023-12-20T07:47:55;1.92;;;1.50;;
51122;SDS011;37162;41.724;13.346;2023-12-20T07:50:20;2.10;;;1.50;;
51122;SDS011;37162;41.724;13.346;2023-12-20T07:52:46;3.55;;;1.75;;
51122;SDS011;37162;41.724;13.346;2023-12-20T07:55:11;2.85;;;2.20;;
51122;SDS011;37162;41.724;13.346;2023-12-20T07:57:36;4.60;;;2.80;;
51122;SDS011;37162;41.724;13.346;2023-12-20T17:15:36;28.40;;;15.48;;
51122;SDS011;37162;41.724;13.346;2023-12-20T17:18:03;25.70;;;15.77;;
51122;SDS011;37162;41.724;13.346;2023-12-20T17:20:30;26.17;;;17.00;;
51122;SDS011;37162;41.724;13.346;2023-12-20T17:22:56;26.02;;;19.25;;
51122;SDS011;37162;41.724;13.346;2023-12-20T17:25:24;30.15;;;19.90;;
51122;SDS011;37162;41.724;13.346;2023-12-20T17:27:49;35.80;;;22.05;;
51122;SDS011;37162;41.724;13.346;2023-12-20T17:30:15;32.88;;;20.20;;
51122;SDS011;37162;41.724;13.346;2023-12-20T17:32:41;28.92;;;19.77;;
51122;SDS011;37162;41.724;13.346;2023-12-20T17:35:13;30.50;;;21.00;;
51122;SDS011;37162;41.724;13.346;2023-12-20T17:37:40;29.48;;;19.00;;
51122;SDS011;37162;41.724;13.346;2023-12-20T17:40:06;30.75;;;19.92;;
51122;SDS011;37162;41.724;13.346;2023-12-20T17:42:31;25.42;;;19.08;;
51122;SDS011;37162;41.724;13.346;2023-12-20T17:44:57;26.92;;;19.08;;
51122;SDS011;37162;41.724;13.346;2023-12-20T17:47:22;26.83;;;19.15;;
51122;SDS011;37162;41.724;13.346;2023-12-20T17:49:48;29.73;;;19.40;;
51122;SDS011;37162;41.724;13.346;2023-12-20T17:52:13;26.83;;;19.35;;
51122;SDS011;37162;41.724;13.346;2023-12-20T17:54:38;30.17;;;19.75;;
51122;SDS011;37162;41.724;13.346;2023-12-20T17:57:04;31.45;;;20.77;;
51122;SDS011;37162;41.724;13.346;2023-12-20T17:59:30;29.40;;;19.08;;
51122;SDS011;37162;41.724;13.346;2023-12-20T18:01:55;27.88;;;19.35;;
51122;SDS011;37162;41.724;13.346;2023-12-20T18:04:20;29.27;;;18.77;;
51122;SDS011;37162;41.724;13.346;2023-12-20T18:06:48;27.65;;;19.55;;
51122;SDS011;37162;41.724;13.346;2023-12-20T18:09:14;23.70;;;18.00;;
51122;SDS011;37162;41.724;13.346;2023-12-20T18:11:39;28.70;;;19.80;;
51122;SDS011;37162;41.724;13.346;2023-12-20T18:14:04;25.63;;;17.83;;
51122;SDS011;37162;41.724;13.346;2023-12-20T18:16:30;25.48;;;18.75;;
51122;SDS011;37162;41.724;13.346;2023-12-20T18:18:56;29.65;;;19.70;;
51122;SDS011;37162;41.724;13.346;2023-12-20T18:21:21;27.48;;;19.42;;
51122;SDS011;37162;41.724;13.346;2023-12-20T18:23:47;25.80;;;18.08;;
51122;SDS011;37162;41.724;13.346;2023-12-20T18:26:13;30.17;;;19.48;;
51122;SDS011;37162;41.724;13.346;2023-12-20T18:28:38;27.33;;;19.75;;
51122;SDS011;37162;41.724;13.346;2023-12-20T18:31:04;28.45;;;20.30;;
51122;SDS011;37162;41.724;13.346;2023-12-20T18:33:30;28.83;;;20.45;;
51122;SDS011;37162;41.724;13.346;2023-12-20T18:36:01;27.48;;;19.55;;
51122;SDS011;37162;41.724;13.346;2023-12-20T18:38:29;28.20;;;19.67;;
51122;SDS011;37162;41.724;13.346;2023-12-20T18:40:57;28.02;;;18.23;;
51122;SDS011;37162;41.724;13.346;2023-12-20T18:43:23;25.55;;;18.75;;
51122;SDS011;37162;41.724;13.346;2023-12-20T18:45:50;24.67;;;18.20;;
51122;SDS011;37162;41.724;13.346;2023-12-20T18:48:17;26.35;;;17.98;;
51122;SDS011;37162;41.724;13.346;2023-12-20T18:50:42;24.67;;;17.77;;
51122;SDS011;37162;41.724;13.346;2023-12-20T18:53:08;25.75;;;18.42;;
51122;SDS011;37162;41.724;13.346;2023-12-20T18:55:34;24.17;;;17.52;;
51122;SDS011;37162;41.724;13.346;2023-12-20T18:58:00;24.25;;;17.95;;
51122;SDS011;37162;41.724;13.346;2023-12-20T19:00:26;25.98;;;17.88;;
51122;SDS011;37162;41.724;13.346;2023-12-20T19:02:52;22.77;;;17.17;;
51122;SDS011;37162;41.724;13.346;2023-12-20T19:05:19;23.00;;;16.13;;
51122;SDS011;37162;41.724;13.346;2023-12-20T19:07:45;23.00;;;16.85;;
51122;SDS011;37162;41.724;13.346;2023-12-20T19:10:11;23.02;;;15.95;;
51122;SDS011;37162;41.724;13.346;2023-12-20T19:12:36;23.65;;;15.80;;
51122;SDS011;37162;41.724;13.346;2023-12-20T19:15:02;23.77;;;16.63;;
51122;SDS011;37162;41.724;13.346;2023-12-20T19:17:27;24.10;;;15.93;;
51122;SDS011;37162;41.724;13.346;2023-12-20T19:19:53;21.23;;;16.20;;
51122;SDS011;37162;41.724;13.346;2023-12-20T19:22:18;22.42;;;16.13;;
51122;SDS011;37162;41.724;13.346;2023-12-20T19:24:44;22.38;;;16.42;;
51122;SDS011;37162;41.724;13.346;2023-12-20T19:27:10;23.98;;;16.88;;
51122;SDS011;37162;41.724;13.346;2023-12-20T19:29:35;23.85;;;16.48;;
51122;SDS011;37162;41.724;13.346;2023-12-20T19:32:01;22.80;;;16.38;;
51122;SDS011;37162;41.724;13.346;2023-12-20T19:34:26;22.67;;;16.67;;
51122;SDS011;37162;41.724;13.346;2023-12-20T19:36:52;23.85;;;17.20;;
51122;SDS011;37162;41.724;13.346;2023-12-20T19:39:17;21.70;;;15.27;;
51122;SDS011;37162;41.724;13.346;2023-12-20T19:41:44;22.45;;;16.67;;
51122;SDS011;37162;41.724;13.346;2023-12-20T19:44:09;20.70;;;16.08;;
51122;SDS011;37162;41.724;13.346;2023-12-20T19:46:35;22.60;;;16.02;;
51122;SDS011;37162;41.724;13.346;2023-12-20T19:49:01;21.80;;;15.88;;
51122;SDS011;37162;41.724;13.346;2023-12-20T19:51:28;20.40;;;15.50;;
51122;SDS011;37162;41.724;13.346;2023-12-20T19:53:54;21.00;;;15.75;;
51122;SDS011;37162;41.724;13.346;2023-12-20T19:56:19;20.35;;;14.82;;
51122;SDS011;37162;41.724;13.346;2023-12-20T19:58:45;21.05;;;15.75;;
51122;SDS011;37162;41.724;13.346;2023-12-20T20:01:10;20.85;;;15.50;;
51122;SDS011;37162;41.724;13.346;2023-12-20T20:03:36;17.92;;;13.70;;
51122;SDS011;37162;41.724;13.346;2023-12-20T20:06:01;20.95;;;14.98;;
51122;SDS011;37162;41.724;13.346;2023-12-20T20:08:27;23.02;;;14.82;;
51122;SDS011;37162;41.724;13.346;2023-12-20T20:10:52;21.77;;;15.55;;
51122;SDS011;37162;41.724;13.346;2023-12-20T20:13:18;23.27;;;15.50;;
51122;SDS011;37162;41.724;13.346;2023-12-20T20:15:43;20.95;;;15.43;;
51122;SDS011;37162;41.724;13.346;2023-12-20T20:18:09;22.10;;;15.02;;
51122;SDS011;37162;41.724;13.346;2023-12-20T20:20:34;18.75;;;14.52;;
51122;SDS011;37162;41.724;13.346;2023-12-20T20:23:00;22.45;;;14.10;;
51122;SDS011;37162;41.724;13.346;2023-12-20T20:25:26;20.02;;;14.90;;
51122;SDS011;37162;41.724;13.346;2023-12-20T20:27:52;21.20;;;14.68;;
51122;SDS011;37162;41.724;13.346;2023-12-20T20:30:18;20.48;;;13.85;;
51122;SDS011;37162;41.724;13.346;2023-12-20T20:32:43;17.83;;;13.77;;
51122;SDS011;37162;41.724;13.346;2023-12-20T20:35:10;19.05;;;13.23;;
51122;SDS011;37162;41.724;13.346;2023-12-20T20:37:35;19.73;;;14.43;;
51122;SDS011;37162;41.724;13.346;2023-12-20T20:40:01;16.92;;;12.77;;
51122;SDS011;37162;41.724;13.346;2023-12-20T20:42:30;16.52;;;13.05;;
51122;SDS011;37162;41.724;13.346;2023-12-20T20:44:56;18.48;;;12.50;;
51122;SDS011;37162;41.724;13.346;2023-12-20T20:47:21;19.63;;;13.75;;
51122;SDS011;37162;41.724;13.346;2023-12-20T20:49:47;17.60;;;13.15;;
51122;SDS011;37162;41.724;13.346;2023-12-20T20:52:12;18.20;;;13.10;;
51122;SDS011;37162;41.724;13.346;2023-12-20T20:54:37;17.02;;;12.98;;
51122;SDS011;37162;41.724;13.346;2023-12-20T20:57:03;19.42;;;13.57;;
51122;SDS011;37162;41.724;13.346;2023-12-20T20:59:28;16.10;;;12.93;;
51122;SDS011;37162;41.724;13.346;2023-12-20T21:01:54;18.42;;;13.63;;
51122;SDS011;37162;41.724;13.346;2023-12-20T21:04:20;16.92;;;13.32;;
51122;SDS011;37162;41.724;13.346;2023-12-20T21:06:45;15.95;;;11.73;;
51122;SDS011;37162;41.724;13.346;2023-12-20T21:09:12;18.10;;;13.48;;
51122;SDS011;37162;41.724;13.346;2023-12-20T21:11:37;18.73;;;13.27;;
51122;SDS011;37162;41.724;13.346;2023-12-20T21:14:03;17.45;;;13.45;;
51122;SDS011;37162;41.724;13.346;2023-12-20T21:16:28;15.27;;;12.30;;
51122;SDS011;37162;41.724;13.346;2023-12-20T21:18:54;19.67;;;13.25;;
51122;SDS011;37162;41.724;13.346;2023-12-20T21:21:19;19.38;;;12.80;;
51122;SDS011;37162;41.724;13.346;2023-12-20T21:23:45;16.80;;;13.27;;
51122;SDS011;37162;41.724;13.346;2023-12-20T21:26:10;15.77;;;12.65;;
51122;SDS011;37162;41.724;13.346;2023-12-20T21:28:36;16.15;;;12.63;;
51122;SDS011;37162;41.724;13.346;2023-12-20T21:31:02;17.60;;;12.13;;
51122;SDS011;37162;41.724;13.346;2023-12-20T21:33:28;16.90;;;12.60;;
51122;SDS011;37162;41.724;13.346;2023-12-20T21:35:53;16.10;;;12.18;;
51122;SDS011;37162;41.724;13.346;2023-12-20T21:38:19;16.83;;;12.55;;
51122;SDS011;37162;41.724;13.346;2023-12-20T21:40:44;17.73;;;12.57;;
51122;SDS011;37162;41.724;13.346;2023-12-20T21:43:10;16.20;;;12.27;;
51122;SDS011;37162;41.724;13.346;2023-12-20T21:45:35;16.02;;;11.73;;
51122;SDS011;37162;41.724;13.346;2023-12-20T21:48:02;16.10;;;11.50;;
51122;SDS011;37162;41.724;13.346;2023-12-20T21:50:28;15.10;;;11.05;;
51122;SDS011;37162;41.724;13.346;2023-12-20T21:52:54;15.55;;;12.15;;
51122;SDS011;37162;41.724;13.346;2023-12-20T21:55:19;15.93;;;12.00;;
51122;SDS011;37162;41.724;13.346;2023-12-20T21:57:45;14.65;;;10.90;;
51122;SDS011;37162;41.724;13.346;2023-12-20T22:00:10;13.98;;;10.75;;
51122;SDS011;37162;41.724;13.346;2023-12-20T22:02:36;14.68;;;9.93;;
51122;SDS011;37162;41.724;13.346;2023-12-20T22:05:03;13.32;;;10.43;;
51122;SDS011;37162;41.724;13.346;2023-12-20T22:07:28;14.18;;;10.90;;
51122;SDS011;37162;41.724;13.346;2023-12-20T22:09:54;14.48;;;10.15;;
51122;SDS011;37162;41.724;13.346;2023-12-20T22:12:19;13.27;;;9.93;;
51122;SDS011;37162;41.724;13.346;2023-12-20T22:14:45;14.25;;;9.48;;
51122;SDS011;37162;41.724;13.346;2023-12-20T22:17:10;14.32;;;9.57;;
51122;SDS011;37162;41.724;13.346;2023-12-20T22:19:36;13.93;;;9.63;;
51122;SDS011;37162;41.724;13.346;2023-12-20T22:22:01;11.52;;;9.27;;
51122;SDS011;37162;41.724;13.346;2023-12-20T22:24:27;14.95;;;9.63;;
51122;SDS011;37162;41.724;13.346;2023-12-20T22:26:52;13.02;;;9.27;;
51122;SDS011;37162;41.724;13.346;2023-12-20T22:29:20;11.88;;;9.43;;
51122;SDS011;37162;41.724;13.346;2023-12-20T22:31:45;13.88;;;10.00;;
51122;SDS011;37162;41.724;13.346;2023-12-20T22:34:11;12.82;;;9.32;;
51122;SDS011;37162;41.724;13.346;2023-12-20T22:36:36;12.50;;;9.23;;
51122;SDS011;37162;41.724;13.346;2023-12-20T22:39:02;12.57;;;9.00;;
51122;SDS011;37162;41.724;13.346;2023-12-20T22:41:27;12.32;;;8.35;;
51122;SDS011;37162;41.724;13.346;2023-12-20T22:43:53;11.10;;;8.75;;
51122;SDS011;37162;41.724;13.346;2023-12-20T22:46:18;10.48;;;7.68;;
51122;SDS011;37162;41.724;13.346;2023-12-20T22:48:44;11.95;;;8.05;;
51122;SDS011;37162;41.724;13.346;2023-12-20T22:51:09;10.40;;;8.70;;
51122;SDS011;37162;41.724;13.346;2023-12-20T22:53:35;12.48;;;8.25;;
51122;SDS011;37162;41.724;13.346;2023-12-20T22:56:00;11.38;;;7.93;;
51122;SDS011;37162;41.724;13.346;2023-12-20T22:58:26;9.88;;;8.25;;
51122;SDS011;37162;41.724;13.346;2023-12-20T23:00:51;10.85;;;8.48;;
51122;SDS011;37162;41.724;13.346;2023-12-20T23:03:17;12.88;;;7.22;;
51122;SDS011;37162;41.724;13.346;2023-12-20T23:05:43;11.63;;;8.23;;
51122;SDS011;37162;41.724;13.346;2023-12-20T23:08:09;13.27;;;8.02;;
51122;SDS011;37162;41.724;13.346;2023-12-20T23:10:35;10.63;;;8.25;;
51122;SDS011;37162;41.724;13.346;2023-12-20T23:13:01;12.27;;;8.10;;
51122;SDS011;37162;41.724;13.346;2023-12-20T23:15:27;10.02;;;7.50;;
51122;SDS011;37162;41.724;13.346;2023-12-20T23:17:52;12.90;;;7.82;;
51122;SDS011;37162;41.724;13.346;2023-12-20T23:20:19;9.60;;;7.35;;
51122;SDS011;37162;41.724;13.346;2023-12-20T23:22:45;11.10;;;7.82;;
51122;SDS011;37162;41.724;13.346;2023-12-20T23:25:10;11.68;;;7.13;;
51122;SDS011;37162;41.724;13.346;2023-12-20T23:27:36;11.77;;;7.90;;
51122;SDS011;37162;41.724;13.346;2023-12-20T23:30:01;10.63;;;7.68;;